sensor_id;sensor_type;location;lat;lon;timestamp;P1;durP1;ratioP1;P2;durP2;ratioP2
11189;SDS011;5651;50.926;4.718;2022-09-20T00:01:01;13.13;;;3.20;;
11189;SDS011;5651;50.926;4.718;2022-09-20T00:03:35;3.55;;;1.83;;
11189;SDS011;5651;50.926;4.718;2022-09-20T00:06:02;5.85;;;2.00;;
11189;SDS011;5651;50.926;4.718;2022-09-20T00:08:29;6.63;;;2.20;;
11189;SDS011;5651;50.926;4.718;2022-09-20T00:10:59;6.82;;;2.40;;
11189;SDS011;5651;50.926;4.718;2022-09-20T00:13:26;14.75;;;4.25;;
11189;SDS011;5651;50.926;4.718;2022-09-20T00:15:52;3.83;;;2.08;;
11189;SDS011;5651;50.926;4.718;2022-09-20T00:18:18;6.72;;;2.08;;
11189;SDS011;5651;50.926;4.718;2022-09-20T00:20:45;6.10;;;2.45;;
11189;SDS011;5651;50.926;4.718;2022-09-20T00:23:11;7.45;;;2.67;;
11189;SDS011;5651;50.926;4.718;2022-09-20T00:25:37;8.32;;;3.08;;
11189;SDS011;5651;50.926;4.718;2022-09-20T00:28:03;7.85;;;2.10;;
11189;SDS011;5651;50.926;4.718;2022-09-20T00:30:31;6.63;;;2.65;;
11189;SDS011;5651;50.926;4.718;2022-09-20T00:32:57;4.00;;;1.70;;
11189;SDS011;5651;50.926;4.718;2022-09-20T00:35:23;8.60;;;2.30;;
11189;SDS011;5651;50.926;4.718;2022-09-20T00:37:49;9.05;;;3.13;;
11189;SDS011;5651;50.926;4.718;2022-09-20T00:40:16;6.45;;;2.20;;
11189;SDS011;5651;50.926;4.718;2022-09-20T00:42:47;3.88;;;2.20;;
11189;SDS011;5651;50.926;4.718;2022-09-20T00:45:27;5.38;;;1.90;;
11189;SDS011;5651;50.926;4.718;2022-09-20T00:48:01;6.13;;;2.30;;
11189;SDS011;5651;50.926;4.718;2022-09-20T00:50:43;7.93;;;2.30;;
11189;SDS011;5651;50.926;4.718;2022-09-20T00:53:13;5.03;;;2.20;;
11189;SDS011;5651;50.926;4.718;2022-09-20T00:55:48;7.15;;;2.38;;
11189;SDS011;5651;50.926;4.718;2022-09-20T00:58:20;8.27;;;4.05;;
11189;SDS011;5651;50.926;4.718;2022-09-20T01:00:49;4.72;;;1.95;;
11189;SDS011;5651;50.926;4.718;2022-09-20T01:03:18;8.43;;;2.00;;
11189;SDS011;5651;50.926;4.718;2022-09-20T01:05:47;6.05;;;1.98;;
11189;SDS011;5651;50.926;4.718;2022-09-20T01:08:15;6.13;;;2.10;;
11189;SDS011;5651;50.926;4.718;2022-09-20T01:10:42;6.07;;;2.25;;
11189;SDS011;5651;50.926;4.718;2022-09-20T01:13:08;6.55;;;2.20;;
11189;SDS011;5651;50.926;4.718;2022-09-20T01:15:34;8.50;;;2.38;;
11189;SDS011;5651;50.926;4.718;2022-09-20T01:18:03;6.70;;;2.25;;
11189;SDS011;5651;50.926;4.718;2022-09-20T01:20:35;5.25;;;2.30;;
11189;SDS011;5651;50.926;4.718;2022-09-20T01:29:02;8.68;;;2.47;;
11189;SDS011;5651;50.926;4.718;2022-09-20T01:31:54;6.40;;;2.30;;
11189;SDS011;5651;50.926;4.718;2022-09-20T01:34:34;5.20;;;2.15;;
11189;SDS011;5651;50.926;4.718;2022-09-20T01:37:05;6.93;;;2.40;;
11189;SDS011;5651;50.926;4.718;2022-09-20T01:42:18;6.57;;;2.33;;
11189;SDS011;5651;50.926;4.718;2022-09-20T01:44:54;4.63;;;2.50;;
11189;SDS011;5651;50.926;4.718;2022-09-20T02:03:54;11.45;;;2.92;;
11189;SDS011;5651;50.926;4.718;2022-09-20T02:09:35;10.30;;;2.67;;
11189;SDS011;5651;50.926;4.718;2022-09-20T02:15:12;8.52;;;2.50;;
11189;SDS011;5651;50.926;4.718;2022-09-20T02:17:52;5.47;;;2.35;;
11189;SDS011;5651;50.926;4.718;2022-09-20T02:21:01;11.05;;;3.17;;
11189;SDS011;5651;50.926;4.718;2022-09-20T02:26:46;8.13;;;2.60;;
11189;SDS011;5651;50.926;4.718;2022-09-20T02:29:41;7.97;;;2.83;;
11189;SDS011;5651;50.926;4.718;2022-09-20T02:37:48;7.55;;;2.47;;
11189;SDS011;5651;50.926;4.718;2022-09-20T02:46:08;7.85;;;2.47;;
11189;SDS011;5651;50.926;4.718;2022-09-20T02:48:46;5.15;;;2.67;;
11189;SDS011;5651;50.926;4.718;2022-09-20T02:51:24;6.95;;;2.45;;
11189;SDS011;5651;50.926;4.718;2022-09-20T02:59:34;9.80;;;2.53;;
11189;SDS011;5651;50.926;4.718;2022-09-20T03:02:18;7.13;;;2.50;;
11189;SDS011;5651;50.926;4.718;2022-09-20T03:04:58;6.93;;;3.03;;
11189;SDS011;5651;50.926;4.718;2022-09-20T03:07:39;5.40;;;2.42;;
11189;SDS011;5651;50.926;4.718;2022-09-20T03:29:56;8.70;;;2.60;;
11189;SDS011;5651;50.926;4.718;2022-09-20T03:32:49;9.75;;;3.95;;
11189;SDS011;5651;50.926;4.718;2022-09-20T03:46:12;9.50;;;3.13;;
11189;SDS011;5651;50.926;4.718;2022-09-20T03:51:12;7.82;;;3.47;;
11189;SDS011;5651;50.926;4.718;2022-09-20T04:02:13;7.78;;;4.35;;
11189;SDS011;5651;50.926;4.718;2022-09-20T04:19:16;7.32;;;3.20;;
11189;SDS011;5651;50.926;4.718;2022-09-20T04:21:57;7.53;;;3.35;;
11189;SDS011;5651;50.926;4.718;2022-09-20T04:24:28;9.25;;;3.97;;
11189;SDS011;5651;50.926;4.718;2022-09-20T04:29:43;10.20;;;3.65;;
11189;SDS011;5651;50.926;4.718;2022-09-20T04:32:31;9.20;;;3.80;;
11189;SDS011;5651;50.926;4.718;2022-09-20T04:38:20;8.38;;;3.67;;
11189;SDS011;5651;50.926;4.718;2022-09-20T04:49:54;14.15;;;4.57;;
11189;SDS011;5651;50.926;4.718;2022-09-20T04:52:54;10.93;;;5.07;;
11189;SDS011;5651;50.926;4.718;2022-09-20T05:03:58;10.35;;;5.60;;
11189;SDS011;5651;50.926;4.718;2022-09-20T05:17:38;18.90;;;11.82;;
11189;SDS011;5651;50.926;4.718;2022-09-20T05:25:42;13.15;;;8.30;;
11189;SDS011;5651;50.926;4.718;2022-09-20T05:30:54;9.50;;;6.50;;
11189;SDS011;5651;50.926;4.718;2022-09-20T05:39:07;13.07;;;7.53;;
11189;SDS011;5651;50.926;4.718;2022-09-20T05:45:06;11.23;;;8.07;;
11189;SDS011;5651;50.926;4.718;2022-09-20T05:48:03;11.43;;;7.72;;
11189;SDS011;5651;50.926;4.718;2022-09-20T06:04:59;13.45;;;11.52;;
11189;SDS011;5651;50.926;4.718;2022-09-20T06:10:35;22.88;;;10.95;;
11189;SDS011;5651;50.926;4.718;2022-09-20T06:16:02;16.77;;;11.73;;
11189;SDS011;5651;50.926;4.718;2022-09-20T06:24:40;19.38;;;12.65;;
11189;SDS011;5651;50.926;4.718;2022-09-20T06:27:24;18.92;;;13.25;;
11189;SDS011;5651;50.926;4.718;2022-09-20T06:29:57;24.77;;;13.50;;
11189;SDS011;5651;50.926;4.718;2022-09-20T06:32:26;16.23;;;11.57;;
11189;SDS011;5651;50.926;4.718;2022-09-20T06:34:52;17.10;;;11.25;;
11189;SDS011;5651;50.926;4.718;2022-09-20T06:40:30;14.65;;;10.63;;
11189;SDS011;5651;50.926;4.718;2022-09-20T06:43:20;17.70;;;10.73;;
11189;SDS011;5651;50.926;4.718;2022-09-20T06:45:46;14.80;;;10.02;;
11189;SDS011;5651;50.926;4.718;2022-09-20T06:48:13;15.95;;;10.95;;
11189;SDS011;5651;50.926;4.718;2022-09-20T06:50:40;18.33;;;11.05;;
11189;SDS011;5651;50.926;4.718;2022-09-20T06:53:16;13.57;;;9.02;;
11189;SDS011;5651;50.926;4.718;2022-09-20T06:55:47;13.68;;;8.65;;
11189;SDS011;5651;50.926;4.718;2022-09-20T06:58:14;17.05;;;9.10;;
11189;SDS011;5651;50.926;4.718;2022-09-20T07:00:40;13.27;;;7.32;;
11189;SDS011;5651;50.926;4.718;2022-09-20T07:03:05;14.05;;;6.80;;
11189;SDS011;5651;50.926;4.718;2022-09-20T07:05:31;13.73;;;8.25;;
11189;SDS011;5651;50.926;4.718;2022-09-20T07:07:57;9.75;;;6.20;;
11189;SDS011;5651;50.926;4.718;2022-09-20T07:10:26;12.32;;;6.10;;
11189;SDS011;5651;50.926;4.718;2022-09-20T07:12:59;13.18;;;6.00;;
11189;SDS011;5651;50.926;4.718;2022-09-20T07:17:52;15.30;;;6.43;;
11189;SDS011;5651;50.926;4.718;2022-09-20T07:20:18;11.35;;;5.97;;
11189;SDS011;5651;50.926;4.718;2022-09-20T07:22:45;11.63;;;5.95;;
11189;SDS011;5651;50.926;4.718;2022-09-20T07:25:11;15.85;;;5.75;;
11189;SDS011;5651;50.926;4.718;2022-09-20T07:27:36;14.65;;;5.85;;
11189;SDS011;5651;50.926;4.718;2022-09-20T07:30:03;11.77;;;5.45;;
11189;SDS011;5651;50.926;4.718;2022-09-20T07:32:30;11.30;;;5.70;;
11189;SDS011;5651;50.926;4.718;2022-09-20T07:34:55;10.82;;;5.05;;
11189;SDS011;5651;50.926;4.718;2022-09-20T07:37:21;11.30;;;4.85;;
11189;SDS011;5651;50.926;4.718;2022-09-20T07:39:47;10.00;;;5.00;;
11189;SDS011;5651;50.926;4.718;2022-09-20T07:42:13;9.88;;;4.90;;
11189;SDS011;5651;50.926;4.718;2022-09-20T07:44:39;10.93;;;4.93;;
11189;SDS011;5651;50.926;4.718;2022-09-20T07:47:06;14.95;;;5.47;;
11189;SDS011;5651;50.926;4.718;2022-09-20T07:49:34;10.65;;;5.47;;
11189;SDS011;5651;50.926;4.718;2022-09-20T07:52:00;12.13;;;5.68;;
11189;SDS011;5651;50.926;4.718;2022-09-20T07:54:26;18.38;;;7.07;;
11189;SDS011;5651;50.926;4.718;2022-09-20T07:56:52;9.95;;;5.03;;
11189;SDS011;5651;50.926;4.718;2022-09-20T07:59:18;14.25;;;5.60;;
11189;SDS011;5651;50.926;4.718;2022-09-20T08:01:44;10.20;;;5.22;;
11189;SDS011;5651;50.926;4.718;2022-09-20T08:04:10;9.52;;;5.30;;
11189;SDS011;5651;50.926;4.718;2022-09-20T08:06:37;11.75;;;5.88;;
11189;SDS011;5651;50.926;4.718;2022-09-20T08:09:04;9.77;;;5.07;;
11189;SDS011;5651;50.926;4.718;2022-09-20T08:11:30;14.05;;;6.25;;
11189;SDS011;5651;50.926;4.718;2022-09-20T08:13:57;12.02;;;5.22;;
11189;SDS011;5651;50.926;4.718;2022-09-20T08:16:24;9.75;;;5.07;;
11189;SDS011;5651;50.926;4.718;2022-09-20T08:18:52;13.27;;;5.47;;
11189;SDS011;5651;50.926;4.718;2022-09-20T08:21:24;9.25;;;4.75;;
11189;SDS011;5651;50.926;4.718;2022-09-20T08:23:50;12.60;;;6.18;;
11189;SDS011;5651;50.926;4.718;2022-09-20T08:26:18;11.65;;;7.47;;
11189;SDS011;5651;50.926;4.718;2022-09-20T08:28:45;11.13;;;5.80;;
11189;SDS011;5651;50.926;4.718;2022-09-20T08:31:17;10.20;;;5.00;;
11189;SDS011;5651;50.926;4.718;2022-09-20T08:33:44;10.70;;;4.80;;
11189;SDS011;5651;50.926;4.718;2022-09-20T08:36:13;11.75;;;6.13;;
11189;SDS011;5651;50.926;4.718;2022-09-20T08:38:40;11.00;;;4.82;;
11189;SDS011;5651;50.926;4.718;2022-09-20T08:43:56;13.98;;;4.80;;
11189;SDS011;5651;50.926;4.718;2022-09-20T08:49:30;12.65;;;4.45;;
11189;SDS011;5651;50.926;4.718;2022-09-20T08:51:57;12.40;;;5.43;;
11189;SDS011;5651;50.926;4.718;2022-09-20T08:54:25;8.07;;;4.80;;
11189;SDS011;5651;50.926;4.718;2022-09-20T08:56:51;9.93;;;5.05;;
11189;SDS011;5651;50.926;4.718;2022-09-20T08:59:21;11.00;;;5.32;;
11189;SDS011;5651;50.926;4.718;2022-09-20T09:01:48;13.23;;;5.00;;
11189;SDS011;5651;50.926;4.718;2022-09-20T09:04:17;13.00;;;5.03;;
11189;SDS011;5651;50.926;4.718;2022-09-20T09:06:48;12.52;;;5.38;;
11189;SDS011;5651;50.926;4.718;2022-09-20T09:09:33;13.40;;;5.20;;
11189;SDS011;5651;50.926;4.718;2022-09-20T09:12:02;11.68;;;5.45;;
11189;SDS011;5651;50.926;4.718;2022-09-20T09:14:30;15.23;;;5.13;;
11189;SDS011;5651;50.926;4.718;2022-09-20T09:19:47;13.50;;;5.68;;
11189;SDS011;5651;50.926;4.718;2022-09-20T09:25:07;9.18;;;5.22;;
11189;SDS011;5651;50.926;4.718;2022-09-20T09:27:50;12.90;;;5.63;;
11189;SDS011;5651;50.926;4.718;2022-09-20T09:30:29;11.25;;;4.05;;
11189;SDS011;5651;50.926;4.718;2022-09-20T09:33:31;9.23;;;4.25;;
11189;SDS011;5651;50.926;4.718;2022-09-20T09:38:25;9.50;;;4.35;;
11189;SDS011;5651;50.926;4.718;2022-09-20T09:40:53;10.10;;;4.38;;
11189;SDS011;5651;50.926;4.718;2022-09-20T09:43:22;11.43;;;4.13;;
11189;SDS011;5651;50.926;4.718;2022-09-20T09:45:55;8.77;;;4.18;;
11189;SDS011;5651;50.926;4.718;2022-09-20T09:48:41;6.22;;;4.00;;
11189;SDS011;5651;50.926;4.718;2022-09-20T09:51:08;11.95;;;4.88;;
11189;SDS011;5651;50.926;4.718;2022-09-20T09:53:35;12.05;;;4.32;;
11189;SDS011;5651;50.926;4.718;2022-09-20T09:58:54;10.18;;;4.68;;
11189;SDS011;5651;50.926;4.718;2022-09-20T10:01:33;8.63;;;4.60;;
11189;SDS011;5651;50.926;4.718;2022-09-20T10:21:30;12.50;;;4.03;;
11189;SDS011;5651;50.926;4.718;2022-09-20T10:30:11;8.45;;;3.92;;
11189;SDS011;5651;50.926;4.718;2022-09-20T10:35:21;10.88;;;3.47;;
11189;SDS011;5651;50.926;4.718;2022-09-20T10:40:55;12.25;;;3.53;;
11189;SDS011;5651;50.926;4.718;2022-09-20T10:44:22;8.50;;;3.33;;
11189;SDS011;5651;50.926;4.718;2022-09-20T10:47:18;8.45;;;2.92;;
11189;SDS011;5651;50.926;4.718;2022-09-20T10:49:57;8.73;;;2.47;;
11189;SDS011;5651;50.926;4.718;2022-09-20T10:58:14;9.82;;;3.03;;
11189;SDS011;5651;50.926;4.718;2022-09-20T11:07:05;8.75;;;2.95;;
11189;SDS011;5651;50.926;4.718;2022-09-20T11:09:41;8.80;;;2.75;;
11189;SDS011;5651;50.926;4.718;2022-09-20T11:14:41;6.60;;;2.85;;
11189;SDS011;5651;50.926;4.718;2022-09-20T11:22:27;7.25;;;2.60;;
11189;SDS011;5651;50.926;4.718;2022-09-20T11:27:46;5.60;;;2.33;;
11189;SDS011;5651;50.926;4.718;2022-09-20T11:30:21;5.27;;;1.70;;
11189;SDS011;5651;50.926;4.718;2022-09-20T11:32:49;4.57;;;1.60;;
11189;SDS011;5651;50.926;4.718;2022-09-20T11:35:21;5.05;;;1.60;;
11189;SDS011;5651;50.926;4.718;2022-09-20T11:37:54;6.43;;;1.83;;
11189;SDS011;5651;50.926;4.718;2022-09-20T11:40:28;2.80;;;1.10;;
11189;SDS011;5651;50.926;4.718;2022-09-20T11:42:58;7.00;;;1.60;;
11189;SDS011;5651;50.926;4.718;2022-09-20T11:45:26;5.05;;;1.73;;
11189;SDS011;5651;50.926;4.718;2022-09-20T11:47:57;4.13;;;1.35;;
11189;SDS011;5651;50.926;4.718;2022-09-20T11:58:49;7.03;;;2.00;;
11189;SDS011;5651;50.926;4.718;2022-09-20T12:01:23;4.72;;;1.63;;
11189;SDS011;5651;50.926;4.718;2022-09-20T12:03:57;5.75;;;1.83;;
11189;SDS011;5651;50.926;4.718;2022-09-20T12:06:30;7.30;;;1.55;;
11189;SDS011;5651;50.926;4.718;2022-09-20T12:09:02;3.43;;;1.23;;
11189;SDS011;5651;50.926;4.718;2022-09-20T12:11:31;7.33;;;1.60;;
11189;SDS011;5651;50.926;4.718;2022-09-20T12:14:01;4.22;;;0.90;;
11189;SDS011;5651;50.926;4.718;2022-09-20T12:16:37;3.45;;;0.88;;
11189;SDS011;5651;50.926;4.718;2022-09-20T12:19:04;6.32;;;1.80;;
11189;SDS011;5651;50.926;4.718;2022-09-20T12:22:14;6.60;;;1.17;;
11189;SDS011;5651;50.926;4.718;2022-09-20T12:24:38;6.80;;;1.13;;
11189;SDS011;5651;50.926;4.718;2022-09-20T12:30:01;5.50;;;1.10;;
11189;SDS011;5651;50.926;4.718;2022-09-20T12:32:45;6.93;;;1.52;;
11189;SDS011;5651;50.926;4.718;2022-09-20T12:35:58;6.57;;;1.10;;
11189;SDS011;5651;50.926;4.718;2022-09-20T12:41:14;4.22;;;1.10;;
11189;SDS011;5651;50.926;4.718;2022-09-20T12:46:55;4.53;;;1.50;;
11189;SDS011;5651;50.926;4.718;2022-09-20T12:49:28;3.72;;;1.42;;
11189;SDS011;5651;50.926;4.718;2022-09-20T13:03:25;5.50;;;1.50;;
11189;SDS011;5651;50.926;4.718;2022-09-20T13:11:29;6.57;;;1.20;;
11189;SDS011;5651;50.926;4.718;2022-09-20T13:14:22;5.10;;;1.00;;
11189;SDS011;5651;50.926;4.718;2022-09-20T13:19:41;5.97;;;0.98;;
11189;SDS011;5651;50.926;4.718;2022-09-20T13:22:11;7.53;;;0.90;;
11189;SDS011;5651;50.926;4.718;2022-09-20T13:25:01;5.75;;;1.58;;
11189;SDS011;5651;50.926;4.718;2022-09-20T13:27:30;3.22;;;1.05;;
11189;SDS011;5651;50.926;4.718;2022-09-20T13:32:47;6.22;;;1.20;;
11189;SDS011;5651;50.926;4.718;2022-09-20T13:40:16;5.50;;;1.83;;
11189;SDS011;5651;50.926;4.718;2022-09-20T13:42:44;8.00;;;1.17;;
11189;SDS011;5651;50.926;4.718;2022-09-20T13:45:12;3.38;;;1.17;;
11189;SDS011;5651;50.926;4.718;2022-09-20T13:47:40;2.70;;;1.10;;
11189;SDS011;5651;50.926;4.718;2022-09-20T13:52:53;2.95;;;1.15;;
11189;SDS011;5651;50.926;4.718;2022-09-20T13:55:31;4.85;;;1.38;;
11189;SDS011;5651;50.926;4.718;2022-09-20T13:58:24;4.43;;;1.70;;
11189;SDS011;5651;50.926;4.718;2022-09-20T14:00:58;3.45;;;1.65;;
11189;SDS011;5651;50.926;4.718;2022-09-20T14:03:27;7.80;;;1.75;;
11189;SDS011;5651;50.926;4.718;2022-09-20T14:06:00;7.75;;;1.80;;
11189;SDS011;5651;50.926;4.718;2022-09-20T14:08:34;7.78;;;2.00;;
11189;SDS011;5651;50.926;4.718;2022-09-20T14:11:05;7.07;;;2.33;;
11189;SDS011;5651;50.926;4.718;2022-09-20T14:13:42;5.82;;;1.90;;
11189;SDS011;5651;50.926;4.718;2022-09-20T14:16:09;4.03;;;1.80;;
11189;SDS011;5651;50.926;4.718;2022-09-20T14:18:35;7.40;;;2.40;;
11189;SDS011;5651;50.926;4.718;2022-09-20T14:21:06;4.70;;;2.42;;
11189;SDS011;5651;50.926;4.718;2022-09-20T14:23:46;4.95;;;1.98;;
11189;SDS011;5651;50.926;4.718;2022-09-20T14:28:40;9.70;;;2.00;;
11189;SDS011;5651;50.926;4.718;2022-09-20T14:31:16;8.00;;;1.88;;
11189;SDS011;5651;50.926;4.718;2022-09-20T14:33:43;4.63;;;1.98;;
11189;SDS011;5651;50.926;4.718;2022-09-20T14:36:14;5.35;;;1.77;;
11189;SDS011;5651;50.926;4.718;2022-09-20T14:38:44;6.38;;;2.17;;
11189;SDS011;5651;50.926;4.718;2022-09-20T14:41:12;7.63;;;2.42;;
11189;SDS011;5651;50.926;4.718;2022-09-20T14:43:47;6.95;;;2.22;;
11189;SDS011;5651;50.926;4.718;2022-09-20T14:46:18;12.02;;;2.30;;
11189;SDS011;5651;50.926;4.718;2022-09-20T14:48:52;5.45;;;1.80;;
11189;SDS011;5651;50.926;4.718;2022-09-20T14:56:37;5.43;;;1.40;;
11189;SDS011;5651;50.926;4.718;2022-09-20T15:01:38;5.97;;;1.50;;
11189;SDS011;5651;50.926;4.718;2022-09-20T15:04:07;5.50;;;1.50;;
11189;SDS011;5651;50.926;4.718;2022-09-20T15:06:37;6.40;;;1.58;;
11189;SDS011;5651;50.926;4.718;2022-09-20T15:09:04;4.97;;;1.40;;
11189;SDS011;5651;50.926;4.718;2022-09-20T15:11:29;5.05;;;1.33;;
11189;SDS011;5651;50.926;4.718;2022-09-20T15:13:55;5.10;;;1.58;;
11189;SDS011;5651;50.926;4.718;2022-09-20T15:16:20;8.35;;;1.80;;
11189;SDS011;5651;50.926;4.718;2022-09-20T15:18:46;4.70;;;1.40;;
11189;SDS011;5651;50.926;4.718;2022-09-20T15:21:12;2.72;;;1.20;;
11189;SDS011;5651;50.926;4.718;2022-09-20T15:23:38;6.50;;;1.40;;
11189;SDS011;5651;50.926;4.718;2022-09-20T15:26:04;6.57;;;1.42;;
11189;SDS011;5651;50.926;4.718;2022-09-20T15:28:30;7.90;;;1.80;;
11189;SDS011;5651;50.926;4.718;2022-09-20T15:30:58;3.25;;;1.20;;
11189;SDS011;5651;50.926;4.718;2022-09-20T15:33:24;5.78;;;1.20;;
11189;SDS011;5651;50.926;4.718;2022-09-20T15:35:53;4.00;;;1.20;;
11189;SDS011;5651;50.926;4.718;2022-09-20T15:38:19;6.22;;;1.80;;
11189;SDS011;5651;50.926;4.718;2022-09-20T15:40:45;3.83;;;1.52;;
11189;SDS011;5651;50.926;4.718;2022-09-20T15:43:13;4.82;;;1.33;;
11189;SDS011;5651;50.926;4.718;2022-09-20T15:46:00;5.32;;;1.67;;
11189;SDS011;5651;50.926;4.718;2022-09-20T15:48:47;4.53;;;1.45;;
11189;SDS011;5651;50.926;4.718;2022-09-20T15:51:13;4.93;;;1.20;;
11189;SDS011;5651;50.926;4.718;2022-09-20T15:53:40;6.28;;;1.38;;
11189;SDS011;5651;50.926;4.718;2022-09-20T15:58:53;5.28;;;1.58;;
11189;SDS011;5651;50.926;4.718;2022-09-20T16:01:24;6.28;;;1.92;;
11189;SDS011;5651;50.926;4.718;2022-09-20T16:03:56;7.97;;;2.10;;
11189;SDS011;5651;50.926;4.718;2022-09-20T16:06:22;4.68;;;1.70;;
11189;SDS011;5651;50.926;4.718;2022-09-20T16:08:48;5.22;;;2.05;;
11189;SDS011;5651;50.926;4.718;2022-09-20T16:11:15;7.68;;;2.40;;
11189;SDS011;5651;50.926;4.718;2022-09-20T16:13:53;5.18;;;2.42;;
11189;SDS011;5651;50.926;4.718;2022-09-20T16:16:20;4.63;;;1.90;;
11189;SDS011;5651;50.926;4.718;2022-09-20T16:18:47;6.63;;;2.35;;
11189;SDS011;5651;50.926;4.718;2022-09-20T16:21:32;7.57;;;3.45;;
11189;SDS011;5651;50.926;4.718;2022-09-20T16:23:58;8.13;;;3.10;;
11189;SDS011;5651;50.926;4.718;2022-09-20T16:26:24;13.60;;;5.18;;
11189;SDS011;5651;50.926;4.718;2022-09-20T16:28:52;14.68;;;3.67;;
11189;SDS011;5651;50.926;4.718;2022-09-20T16:32:02;14.32;;;4.82;;
11189;SDS011;5651;50.926;4.718;2022-09-20T16:34:15;7.78;;;2.53;;
11189;SDS011;5651;50.926;4.718;2022-09-20T16:37:01;5.47;;;3.00;;
11189;SDS011;5651;50.926;4.718;2022-09-20T16:39:30;10.43;;;3.28;;
11189;SDS011;5651;50.926;4.718;2022-09-20T16:42:00;5.88;;;2.75;;
11189;SDS011;5651;50.926;4.718;2022-09-20T16:46:55;7.60;;;2.70;;
11189;SDS011;5651;50.926;4.718;2022-09-20T16:49:21;8.40;;;3.30;;
11189;SDS011;5651;50.926;4.718;2022-09-20T16:51:47;10.65;;;7.22;;
11189;SDS011;5651;50.926;4.718;2022-09-20T16:54:13;17.70;;;11.88;;
11189;SDS011;5651;50.926;4.718;2022-09-20T16:56:42;19.10;;;11.55;;
11189;SDS011;5651;50.926;4.718;2022-09-20T16:59:12;16.05;;;7.75;;
11189;SDS011;5651;50.926;4.718;2022-09-20T17:01:40;11.88;;;8.57;;
11189;SDS011;5651;50.926;4.718;2022-09-20T17:04:07;15.40;;;7.78;;
11189;SDS011;5651;50.926;4.718;2022-09-20T17:06:34;8.40;;;4.30;;
11189;SDS011;5651;50.926;4.718;2022-09-20T17:09:02;7.72;;;3.80;;
11189;SDS011;5651;50.926;4.718;2022-09-20T17:11:42;6.50;;;2.67;;
11189;SDS011;5651;50.926;4.718;2022-09-20T17:14:12;10.57;;;3.20;;
11189;SDS011;5651;50.926;4.718;2022-09-20T17:16:40;4.85;;;2.60;;
11189;SDS011;5651;50.926;4.718;2022-09-20T17:19:10;9.00;;;3.30;;
11189;SDS011;5651;50.926;4.718;2022-09-20T17:21:38;7.90;;;3.10;;
11189;SDS011;5651;50.926;4.718;2022-09-20T17:24:14;10.90;;;3.50;;
11189;SDS011;5651;50.926;4.718;2022-09-20T17:26:42;8.20;;;3.13;;
11189;SDS011;5651;50.926;4.718;2022-09-20T17:29:10;6.25;;;3.20;;
11189;SDS011;5651;50.926;4.718;2022-09-20T17:31:39;6.88;;;3.30;;
11189;SDS011;5651;50.926;4.718;2022-09-20T17:34:07;9.27;;;5.00;;
11189;SDS011;5651;50.926;4.718;2022-09-20T17:36:39;9.57;;;5.72;;
11189;SDS011;5651;50.926;4.718;2022-09-20T17:39:06;13.20;;;6.57;;
11189;SDS011;5651;50.926;4.718;2022-09-20T17:41:40;15.10;;;6.80;;
11189;SDS011;5651;50.926;4.718;2022-09-20T17:44:07;8.80;;;4.82;;
11189;SDS011;5651;50.926;4.718;2022-09-20T17:46:35;7.57;;;3.72;;
11189;SDS011;5651;50.926;4.718;2022-09-20T17:49:03;8.13;;;3.63;;
11189;SDS011;5651;50.926;4.718;2022-09-20T17:51:32;8.05;;;3.60;;
11189;SDS011;5651;50.926;4.718;2022-09-20T17:54:08;5.47;;;3.20;;
11189;SDS011;5651;50.926;4.718;2022-09-20T17:56:38;8.45;;;3.50;;
11189;SDS011;5651;50.926;4.718;2022-09-20T17:59:08;10.10;;;3.40;;
11189;SDS011;5651;50.926;4.718;2022-09-20T18:01:35;9.05;;;3.20;;
11189;SDS011;5651;50.926;4.718;2022-09-20T18:04:02;11.35;;;3.00;;
11189;SDS011;5651;50.926;4.718;2022-09-20T18:06:31;6.07;;;3.03;;
11189;SDS011;5651;50.926;4.718;2022-09-20T18:09:00;5.03;;;3.00;;
11189;SDS011;5651;50.926;4.718;2022-09-20T18:11:38;6.65;;;3.25;;
11189;SDS011;5651;50.926;4.718;2022-09-20T18:14:06;10.38;;;3.30;;
11189;SDS011;5651;50.926;4.718;2022-09-20T18:16:34;6.03;;;3.28;;
11189;SDS011;5651;50.926;4.718;2022-09-20T18:19:01;8.25;;;3.85;;
11189;SDS011;5651;50.926;4.718;2022-09-20T18:21:29;5.45;;;3.30;;
11189;SDS011;5651;50.926;4.718;2022-09-20T18:23:56;6.38;;;3.42;;
11189;SDS011;5651;50.926;4.718;2022-09-20T18:26:23;6.65;;;3.58;;
11189;SDS011;5651;50.926;4.718;2022-09-20T18:28:52;7.88;;;4.15;;
11189;SDS011;5651;50.926;4.718;2022-09-20T18:31:26;8.18;;;4.78;;
11189;SDS011;5651;50.926;4.718;2022-09-20T18:33:57;7.30;;;4.78;;
11189;SDS011;5651;50.926;4.718;2022-09-20T18:36:25;11.20;;;5.97;;
11189;SDS011;5651;50.926;4.718;2022-09-20T18:38:53;10.50;;;6.57;;
11189;SDS011;5651;50.926;4.718;2022-09-20T18:41:23;11.52;;;7.60;;
11189;SDS011;5651;50.926;4.718;2022-09-20T18:43:51;12.27;;;7.72;;
11189;SDS011;5651;50.926;4.718;2022-09-20T18:46:18;13.85;;;8.25;;
11189;SDS011;5651;50.926;4.718;2022-09-20T18:48:48;14.27;;;7.75;;
11189;SDS011;5651;50.926;4.718;2022-09-20T18:51:15;10.43;;;5.80;;
11189;SDS011;5651;50.926;4.718;2022-09-20T18:53:41;13.27;;;6.70;;
11189;SDS011;5651;50.926;4.718;2022-09-20T18:56:07;14.20;;;6.75;;
11189;SDS011;5651;50.926;4.718;2022-09-20T18:58:38;12.00;;;6.28;;
11189;SDS011;5651;50.926;4.718;2022-09-20T19:04:21;13.45;;;7.70;;
11189;SDS011;5651;50.926;4.718;2022-09-20T19:06:38;11.73;;;7.22;;
11189;SDS011;5651;50.926;4.718;2022-09-20T19:09:11;15.05;;;8.60;;
11189;SDS011;5651;50.926;4.718;2022-09-20T19:11:54;11.98;;;6.75;;
11189;SDS011;5651;50.926;4.718;2022-09-20T19:14:31;13.40;;;7.10;;
11189;SDS011;5651;50.926;4.718;2022-09-20T19:17:14;13.50;;;6.63;;
11189;SDS011;5651;50.926;4.718;2022-09-20T19:19:55;10.30;;;5.85;;
11189;SDS011;5651;50.926;4.718;2022-09-20T19:28:07;12.80;;;6.25;;
11189;SDS011;5651;50.926;4.718;2022-09-20T19:30:35;11.57;;;6.53;;
11189;SDS011;5651;50.926;4.718;2022-09-20T19:33:03;8.07;;;5.97;;
11189;SDS011;5651;50.926;4.718;2022-09-20T19:35:34;10.18;;;6.25;;
11189;SDS011;5651;50.926;4.718;2022-09-20T19:46:58;11.18;;;6.55;;
11189;SDS011;5651;50.926;4.718;2022-09-20T19:49:39;19.10;;;9.32;;
11189;SDS011;5651;50.926;4.718;2022-09-20T19:52:13;12.50;;;7.93;;
11189;SDS011;5651;50.926;4.718;2022-09-20T19:54:39;12.35;;;6.65;;
11189;SDS011;5651;50.926;4.718;2022-09-20T19:57:08;16.55;;;7.15;;
11189;SDS011;5651;50.926;4.718;2022-09-20T19:59:42;11.05;;;6.90;;
11189;SDS011;5651;50.926;4.718;2022-09-20T20:02:08;12.35;;;7.63;;
11189;SDS011;5651;50.926;4.718;2022-09-20T20:04:36;12.35;;;7.38;;
11189;SDS011;5651;50.926;4.718;2022-09-20T20:07:04;11.73;;;6.80;;
11189;SDS011;5651;50.926;4.718;2022-09-20T20:15:02;17.33;;;8.65;;
11189;SDS011;5651;50.926;4.718;2022-09-20T20:28:16;17.13;;;9.00;;
11189;SDS011;5651;50.926;4.718;2022-09-20T20:30:42;13.48;;;8.65;;
11189;SDS011;5651;50.926;4.718;2022-09-20T20:33:14;13.98;;;8.70;;
11189;SDS011;5651;50.926;4.718;2022-09-20T20:35:40;17.40;;;9.32;;
11189;SDS011;5651;50.926;4.718;2022-09-20T20:38:06;21.23;;;11.60;;
11189;SDS011;5651;50.926;4.718;2022-09-20T20:40:36;22.25;;;14.23;;
11189;SDS011;5651;50.926;4.718;2022-09-20T20:43:02;26.77;;;14.60;;
11189;SDS011;5651;50.926;4.718;2022-09-20T20:45:30;26.42;;;14.73;;
11189;SDS011;5651;50.926;4.718;2022-09-20T20:47:56;24.02;;;13.88;;
11189;SDS011;5651;50.926;4.718;2022-09-20T20:50:26;22.02;;;14.32;;
11189;SDS011;5651;50.926;4.718;2022-09-20T20:52:54;26.42;;;16.42;;
11189;SDS011;5651;50.926;4.718;2022-09-20T20:55:20;21.80;;;15.25;;
11189;SDS011;5651;50.926;4.718;2022-09-20T20:57:50;24.95;;;15.40;;
11189;SDS011;5651;50.926;4.718;2022-09-20T21:00:23;21.88;;;15.63;;
11189;SDS011;5651;50.926;4.718;2022-09-20T21:02:57;18.05;;;12.35;;
11189;SDS011;5651;50.926;4.718;2022-09-20T21:05:28;18.70;;;11.63;;
11189;SDS011;5651;50.926;4.718;2022-09-20T21:07:55;19.27;;;12.70;;
11189;SDS011;5651;50.926;4.718;2022-09-20T21:10:22;15.70;;;11.15;;
11189;SDS011;5651;50.926;4.718;2022-09-20T21:12:48;18.95;;;11.57;;
11189;SDS011;5651;50.926;4.718;2022-09-20T21:15:17;18.88;;;11.65;;
11189;SDS011;5651;50.926;4.718;2022-09-20T21:17:50;16.13;;;10.50;;